createdAt,value
2018-04-24T00:01:49.563Z,0.83
2018-04-24T00:04:17.817Z,0.80
2018-04-24T00:06:45.704Z,1.10
2018-04-24T00:09:13.541Z,1.20
2018-04-24T00:11:41.701Z,0.80
2018-04-24T00:14:09.553Z,0.80
2018-04-24T00:16:37.444Z,0.50
2018-04-24T00:19:05.804Z,0.53
2018-04-24T00:21:33.644Z,1.47
2018-04-24T00:24:01.490Z,1.20
2018-04-24T00:26:29.778Z,0.50
2018-04-24T00:28:58.026Z,0.93
2018-04-24T00:31:25.874Z,1.80
2018-04-24T00:33:54.198Z,0.30
2018-04-24T00:36:22.040Z,0.50
2018-04-24T00:38:49.896Z,0.50
2018-04-24T00:41:18.124Z,0.50
2018-04-24T00:43:45.955Z,0.77
2018-04-24T00:46:13.799Z,0.73
2018-04-24T00:48:42.048Z,0.57
2018-04-24T00:51:09.893Z,1.23
2018-04-24T00:53:40.702Z,0.43
2018-04-24T00:56:08.625Z,0.40
2018-04-24T00:58:36.230Z,1.40
2018-04-24T01:01:04.068Z,0.47
2018-04-24T01:03:32.327Z,0.63
2018-04-24T01:06:00.013Z,1.40
2018-04-24T01:08:27.928Z,1.27
2018-04-24T01:10:56.363Z,0.60
2018-04-24T01:13:24.213Z,0.83
2018-04-24T01:15:58.108Z,0.53
2018-04-24T01:18:25.947Z,0.37
2018-04-24T01:20:53.782Z,1.90
2018-04-24T01:23:22.012Z,0.40
2018-04-24T01:25:49.625Z,0.60
2018-04-24T01:28:17.499Z,0.60
2018-04-24T01:30:45.776Z,1.43
2018-04-24T01:33:13.612Z,0.80
2018-04-24T01:35:41.448Z,0.83
2018-04-24T01:38:09.557Z,0.57
2018-04-24T01:40:37.399Z,1.33
2018-04-24T01:43:05.315Z,0.63
2018-04-24T01:45:33.544Z,0.67
2018-04-24T01:48:01.384Z,0.40
2018-04-24T01:50:29.224Z,0.50
2018-04-24T01:52:57.433Z,0.50
2018-04-24T01:55:25.268Z,0.50
2018-04-24T01:57:53.120Z,1.00
2018-04-24T02:00:21.343Z,1.70
2018-04-24T02:02:49.204Z,0.33
2018-04-24T02:05:17.048Z,0.30
2018-04-24T02:07:45.213Z,0.30
2018-04-24T02:10:12.817Z,0.80
2018-04-24T02:12:40.657Z,0.37
2018-04-24T02:15:14.367Z,0.40
2018-04-24T02:17:42.215Z,0.50
2018-04-24T02:20:10.111Z,0.83
2018-04-24T02:22:38.512Z,1.50
2018-04-24T02:25:06.361Z,0.90
2018-04-24T02:27:34.191Z,0.50
2018-04-24T02:30:02.395Z,0.60
2018-04-24T02:32:30.001Z,0.60
2018-04-24T02:34:57.845Z,0.57
2018-04-24T02:37:25.949Z,0.37
2018-04-24T02:39:53.793Z,0.60
2018-04-24T02:42:21.638Z,0.53
2018-04-24T02:44:49.898Z,0.53
2018-04-24T02:47:17.767Z,0.73
2018-04-24T02:49:45.611Z,1.27
2018-04-24T02:52:13.973Z,0.40
2018-04-24T02:54:41.817Z,1.40
2018-04-24T02:57:09.460Z,0.60
2018-04-24T02:59:37.700Z,0.80
2018-04-24T03:02:05.539Z,0.63
2018-04-24T03:04:33.380Z,0.37
2018-04-24T03:07:01.576Z,1.33
2018-04-24T03:09:29.427Z,1.77
2018-04-24T03:11:57.367Z,1.13
2018-04-24T03:14:25.621Z,1.00
2018-04-24T03:16:53.457Z,0.50
2018-04-24T03:19:27.150Z,1.07
2018-04-24T03:21:55.008Z,0.50
2018-04-24T03:24:22.840Z,1.17
2018-04-24T03:26:51.105Z,0.60
2018-04-24T03:29:18.985Z,0.67
2018-04-24T03:31:46.822Z,1.20
2018-04-24T03:34:15.002Z,0.40
2018-04-24T03:36:42.837Z,0.60
2018-04-24T03:39:10.680Z,0.47
2018-04-24T03:41:38.817Z,0.77
2018-04-24T03:44:06.654Z,0.50
2018-04-24T03:46:36.525Z,1.10
2018-04-24T03:49:04.466Z,0.53
2018-04-24T03:51:32.320Z,0.40
2018-04-24T03:54:00.205Z,0.70
2018-04-24T03:56:28.361Z,0.50
2018-04-24T03:58:56.193Z,1.27
2018-04-24T04:01:24.045Z,0.60
2018-04-24T04:03:52.272Z,0.43
2018-04-24T04:06:20.118Z,0.97
2018-04-24T04:08:47.848Z,0.47
2018-04-24T04:11:15.829Z,0.60
2018-04-24T04:13:43.668Z,1.03
2018-04-24T04:16:11.509Z,0.70
2018-04-24T04:18:45.415Z,0.40
2018-04-24T04:21:18.844Z,0.50
2018-04-24T04:23:52.773Z,0.70
2018-04-24T04:26:20.620Z,1.03
2018-04-24T04:28:48.453Z,0.40
2018-04-24T04:31:16.644Z,0.70
2018-04-24T04:33:44.489Z,0.90
2018-04-24T04:36:12.323Z,0.90
2018-04-24T04:38:40.425Z,0.80
2018-04-24T04:41:08.264Z,0.90
2018-04-24T04:43:36.097Z,1.30
2018-04-24T04:46:04.341Z,1.40
2018-04-24T04:48:32.183Z,0.70
2018-04-24T04:51:05.566Z,0.60
2018-04-24T04:53:33.403Z,0.70
2018-04-24T04:56:01.059Z,0.67
2018-04-24T04:58:28.912Z,1.40
2018-04-24T05:00:56.748Z,1.07
2018-04-24T05:03:24.583Z,0.63
2018-04-24T05:05:52.789Z,0.77
2018-04-24T05:08:20.621Z,1.27
2018-04-24T05:10:48.469Z,0.70
2018-04-24T05:13:16.809Z,1.07
2018-04-24T05:15:44.675Z,0.93
2018-04-24T05:18:12.507Z,1.60
2018-04-24T05:20:40.704Z,0.87
2018-04-24T05:23:08.541Z,0.70
2018-04-24T05:25:36.172Z,0.47
2018-04-24T05:28:04.437Z,1.37
2018-04-24T05:30:32.312Z,1.07
2018-04-24T05:33:00.156Z,1.27
2018-04-24T05:35:28.420Z,0.80
2018-04-24T05:37:56.308Z,1.13
2018-04-24T05:40:24.149Z,0.90
2018-04-24T05:42:52.009Z,0.87
2018-04-24T05:45:19.973Z,2.00
2018-04-24T05:47:48.249Z,0.93
2018-04-24T05:50:16.442Z,1.30
2018-04-24T05:52:44.290Z,1.00
2018-04-24T05:55:12.167Z,1.40
2018-04-24T05:57:40.340Z,1.17
2018-04-24T06:00:08.195Z,1.33
2018-04-24T06:02:36.035Z,0.83
2018-04-24T06:05:04.558Z,1.33
2018-04-24T06:07:32.417Z,1.40
2018-04-24T06:10:00.265Z,0.90
2018-04-24T06:12:28.140Z,1.47
2018-04-24T06:14:55.978Z,1.03
2018-04-24T06:17:23.824Z,1.10
2018-04-24T06:19:58.029Z,1.03
2018-04-24T06:22:25.865Z,2.10
2018-04-24T06:24:53.912Z,1.40
2018-04-24T06:27:22.101Z,1.07
2018-04-24T06:29:49.977Z,1.30
2018-04-24T06:32:17.812Z,1.20
2018-04-24T06:34:46.018Z,1.00
2018-04-24T06:37:13.885Z,1.37
2018-04-24T06:39:41.738Z,1.10
2018-04-24T06:42:09.925Z,1.53
2018-04-24T06:44:37.830Z,1.67
2018-04-24T06:47:05.433Z,1.43
2018-04-24T06:49:33.724Z,1.37
2018-04-24T06:52:01.555Z,1.77
2018-04-24T06:54:29.453Z,1.27
2018-04-24T06:56:57.654Z,1.30
2018-04-24T06:59:25.509Z,4.57
2018-04-24T07:01:53.343Z,1.40
2018-04-24T07:04:21.213Z,1.03
2018-04-24T07:06:49.564Z,1.27
2018-04-24T07:09:17.421Z,1.47
2018-04-24T07:11:45.652Z,0.87
2018-04-24T07:14:13.519Z,0.97
2018-04-24T07:16:41.850Z,0.97
2018-04-24T07:19:10.397Z,1.87
2018-04-24T07:21:38.262Z,1.30
2018-04-24T07:24:08.049Z,1.57
2018-04-24T07:26:35.990Z,2.00
2018-04-24T07:29:03.864Z,2.07
2018-04-24T07:31:33.362Z,1.97
2018-04-24T07:34:01.296Z,1.10
2018-04-24T07:36:29.169Z,1.27
2018-04-24T07:38:57.073Z,1.40
2018-04-24T07:41:24.829Z,1.37
2018-04-24T07:43:52.596Z,1.57
2018-04-24T07:48:55.230Z,1.53
2018-04-24T07:51:23.089Z,1.03
2018-04-24T07:53:50.960Z,1.20
2018-04-24T07:56:19.266Z,1.13
2018-04-24T07:58:47.128Z,0.93
2018-04-24T08:01:15.395Z,1.17
2018-04-24T08:03:43.548Z,1.27
2018-04-24T08:06:11.405Z,1.40
2018-04-24T08:08:39.061Z,1.50
2018-04-24T08:11:07.206Z,1.90
2018-04-24T08:13:35.120Z,0.83
2018-04-24T08:16:02.969Z,1.10
2018-04-24T08:18:31.157Z,1.83
2018-04-24T08:21:04.698Z,1.57
2018-04-24T08:23:38.540Z,0.83
2018-04-24T08:26:06.550Z,1.30
2018-04-24T08:28:34.420Z,1.37
2018-04-24T08:31:02.321Z,1.23
2018-04-24T08:33:29.973Z,3.50
2018-04-24T08:35:57.818Z,1.30
2018-04-24T08:38:26.070Z,0.80
2018-04-24T08:40:53.956Z,1.27
2018-04-24T08:43:21.828Z,2.07
2018-04-24T08:45:51.751Z,1.50
2018-04-24T08:48:20.097Z,1.53
2018-04-24T08:50:49.237Z,2.70
2018-04-24T08:53:17.786Z,1.10
2018-04-24T08:55:45.640Z,1.47
2018-04-24T08:58:13.565Z,0.97
2018-04-24T09:00:41.460Z,1.87
2018-04-24T09:03:09.400Z,2.30
2018-04-24T09:05:37.083Z,1.20
2018-04-24T09:08:05.468Z,1.20
2018-04-24T09:10:33.303Z,1.40
2018-04-24T09:13:01.209Z,1.23
2018-04-24T09:15:29.827Z,1.40
2018-04-24T09:18:04.377Z,1.60
2018-04-24T09:20:32.268Z,1.67
2018-04-24T09:23:00.198Z,1.37
2018-04-24T09:25:28.074Z,2.80
2018-04-24T09:27:56.321Z,1.80
2018-04-24T09:30:24.017Z,2.60
2018-04-24T09:32:51.878Z,0.97
2018-04-24T09:35:25.524Z,1.00
2018-04-24T09:38:00.384Z,1.43
2018-04-24T09:40:28.497Z,1.87
2018-04-24T09:42:56.383Z,1.50
2018-04-24T09:45:24.424Z,1.70
2018-04-24T09:47:53.423Z,3.40
2018-04-24T09:50:21.285Z,1.30
2018-04-24T09:52:50.312Z,1.37
2018-04-24T09:55:18.224Z,1.53
2018-04-24T09:57:46.081Z,1.10
2018-04-24T10:00:13.701Z,1.43
2018-04-24T10:02:41.586Z,2.23
2018-04-24T10:05:15.236Z,1.83
2018-04-24T10:07:50.047Z,4.37
2018-04-24T10:10:25.092Z,2.03
2018-04-24T10:12:53.600Z,2.33
2018-04-24T10:15:21.746Z,1.42
2018-04-24T10:17:51.688Z,3.80
2018-04-24T10:20:19.637Z,3.83
2018-04-24T10:22:47.551Z,1.97
2018-04-24T10:25:16.837Z,2.30
2018-04-24T10:27:45.096Z,1.10
2018-04-24T10:30:13.049Z,1.67
2018-04-24T10:32:40.828Z,2.40
2018-04-24T10:35:08.828Z,2.80
2018-04-24T10:37:37.024Z,1.20
2018-04-24T10:40:06.871Z,1.57
2018-04-24T10:42:35.976Z,1.75
2018-04-24T10:45:04.047Z,2.92
2018-04-24T10:47:33.144Z,3.67
2018-04-24T10:50:02.275Z,0.80
2018-04-24T10:52:30.912Z,1.67
2018-04-24T10:54:59.520Z,2.97
2018-04-24T10:57:29.343Z,1.87
2018-04-24T10:59:57.490Z,2.63
2018-04-24T11:02:26.087Z,1.57
2018-04-24T11:04:55.099Z,3.33
2018-04-24T11:07:23.379Z,2.65
2018-04-24T11:09:52.446Z,1.57
2018-04-24T11:12:22.855Z,2.93
2018-04-24T11:14:50.882Z,2.27
2018-04-24T11:17:18.781Z,1.40
2018-04-24T11:19:47.002Z,2.17
2018-04-24T11:22:14.875Z,2.20
2018-04-24T11:24:49.259Z,2.40
2018-04-24T11:27:17.640Z,2.10
2018-04-24T11:29:46.086Z,4.10
2018-04-24T11:32:15.624Z,2.73
2018-04-24T11:34:44.180Z,1.20
2018-04-24T11:37:18.203Z,1.30
2018-04-24T11:39:46.600Z,1.30
2018-04-24T11:42:14.462Z,3.07
2018-04-24T11:44:42.763Z,1.40
2018-04-24T11:47:10.548Z,1.67
2018-04-24T11:49:38.624Z,1.20
2018-04-24T11:52:07.731Z,1.57
2018-04-24T11:54:38.552Z,2.43
2018-04-24T11:57:10.030Z,1.50
2018-04-24T11:59:38.306Z,3.30
2018-04-24T12:02:06.793Z,1.70
2018-04-24T12:04:34.682Z,1.53
2018-04-24T12:07:02.895Z,3.30
2018-04-24T12:09:37.295Z,1.40
2018-04-24T12:12:05.829Z,1.58
2018-04-24T12:14:33.692Z,1.47
2018-04-24T12:17:01.891Z,2.50
2018-04-24T12:19:30.141Z,1.60
2018-04-24T12:21:58.593Z,1.53
2018-04-24T12:24:32.435Z,3.23
2018-04-24T12:27:06.867Z,1.67
2018-04-24T12:29:40.821Z,1.20
2018-04-24T12:32:08.753Z,2.03
2018-04-24T12:34:36.831Z,1.43
2018-04-24T12:37:05.427Z,1.57
2018-04-24T12:39:34.669Z,1.50
2018-04-24T12:42:08.426Z,1.17
2018-04-24T12:44:36.778Z,0.90
2018-04-24T12:47:05.660Z,1.20
2018-04-24T12:49:33.897Z,1.67
2018-04-24T12:52:11.614Z,1.47
2018-04-24T12:54:40.732Z,4.13
2018-04-24T12:57:08.962Z,2.50
2018-04-24T12:59:37.882Z,2.10
2018-04-24T13:02:08.213Z,1.43
2018-04-24T13:04:36.424Z,1.42
2018-04-24T13:07:05.705Z,1.20
2018-04-24T13:09:34.269Z,1.85
2018-04-24T13:12:03.434Z,2.00
2018-04-24T13:14:32.415Z,3.03
2018-04-24T13:17:00.598Z,2.80
2018-04-24T13:19:29.638Z,1.07
2018-04-24T13:21:58.839Z,2.00
2018-04-24T13:24:27.400Z,1.43
2018-04-24T13:26:56.111Z,1.33
2018-04-24T13:29:24.040Z,1.17
2018-04-24T13:31:58.066Z,1.90
2018-04-24T13:34:26.693Z,1.23
2018-04-24T13:36:55.587Z,2.97
2018-04-24T13:39:23.797Z,1.50
2018-04-24T13:41:51.688Z,2.80
2018-04-24T13:44:19.790Z,1.73
2018-04-24T13:46:48.154Z,2.17
2018-04-24T13:49:16.825Z,1.20
2018-04-24T13:51:50.687Z,1.67
2018-04-24T13:54:19.276Z,1.53
2018-04-24T13:56:47.160Z,3.70
2018-04-24T13:59:15.441Z,3.50
2018-04-24T14:01:45.026Z,2.07
2018-04-24T14:04:12.924Z,2.00
2018-04-24T14:06:41.384Z,2.37
2018-04-24T14:09:10.668Z,3.07
2018-04-24T14:11:39.526Z,1.77
2018-04-24T14:14:07.928Z,5.30
2018-04-24T14:16:36.384Z,2.87
2018-04-24T14:19:05.950Z,3.53
2018-04-24T14:21:34.060Z,2.00
2018-04-24T14:24:02.593Z,1.97
2018-04-24T14:26:31.138Z,3.77
2018-04-24T14:29:01.557Z,1.97
2018-04-24T14:31:29.511Z,1.90
2018-04-24T14:33:57.380Z,3.40
2018-04-24T14:36:32.602Z,2.00
2018-04-24T14:39:02.033Z,2.50
2018-04-24T14:41:30.205Z,2.30
2018-04-24T14:43:58.462Z,2.53
2018-04-24T14:46:26.365Z,2.00
2018-04-24T14:48:54.213Z,3.90
2018-04-24T14:51:22.529Z,2.50
2018-04-24T14:53:51.575Z,2.50
2018-04-24T14:56:19.746Z,2.50
2018-04-24T14:58:48.076Z,2.70
2018-04-24T15:01:16.572Z,3.33
2018-04-24T15:03:44.514Z,2.83
2018-04-24T15:06:12.720Z,3.17
2018-04-24T15:08:40.576Z,3.60
2018-04-24T15:11:08.447Z,8.13
2018-04-24T15:13:36.386Z,3.00
2018-04-24T15:16:04.016Z,3.77
2018-04-24T15:18:31.898Z,3.10
2018-04-24T15:21:00.139Z,3.47
2018-04-24T15:23:28.002Z,2.90
2018-04-24T15:25:56.644Z,3.00
2018-04-24T15:28:24.534Z,4.37
2018-04-24T15:30:52.412Z,2.90
2018-04-24T15:33:20.310Z,3.40
2018-04-24T15:35:48.275Z,3.03
2018-04-24T15:38:17.168Z,3.20
2018-04-24T15:40:46.998Z,3.20
2018-04-24T15:43:15.513Z,3.20
2018-04-24T15:45:43.908Z,3.27
2018-04-24T15:48:12.489Z,3.20
2018-04-24T15:50:40.376Z,2.97
2018-04-24T15:53:08.728Z,2.90
2018-04-24T15:55:37.574Z,2.90
2018-04-24T15:58:07.697Z,3.13
2018-04-24T16:00:36.195Z,2.90
2018-04-24T16:03:06.290Z,3.40
2018-04-24T16:05:35.674Z,2.97
2018-04-24T16:08:03.722Z,3.10
2018-04-24T16:10:32.595Z,3.10
2018-04-24T16:13:00.684Z,3.33
2018-04-24T16:15:28.653Z,3.00
2018-04-24T16:17:56.771Z,3.00
2018-04-24T16:20:25.172Z,3.17
2018-04-24T16:22:53.614Z,2.87
2018-04-24T16:25:22.552Z,3.13
2018-04-24T16:27:52.356Z,2.87
2018-04-24T16:30:20.526Z,2.77
2018-04-24T16:32:49.267Z,3.33
2018-04-24T16:37:52.124Z,3.40
2018-04-24T16:40:20.396Z,3.20
2018-04-24T16:42:48.250Z,3.20
2018-04-24T16:45:16.283Z,3.10
2018-04-24T16:47:44.493Z,2.80
2018-04-24T16:50:12.430Z,2.60
2018-04-24T16:52:40.332Z,3.67
2018-04-24T16:55:08.617Z,2.70
2018-04-24T16:57:36.477Z,2.60
2018-04-24T17:00:04.078Z,3.17
2018-04-24T17:02:31.960Z,3.10
2018-04-24T17:04:59.810Z,2.77
2018-04-24T17:07:27.669Z,3.07
2018-04-24T17:09:55.921Z,2.83
2018-04-24T17:12:23.755Z,2.57
2018-04-24T17:14:51.607Z,2.90
2018-04-24T17:17:19.809Z,2.57
2018-04-24T17:19:47.648Z,2.70
2018-04-24T17:22:15.488Z,2.67
2018-04-24T17:24:43.726Z,2.57
2018-04-24T17:27:11.585Z,3.20
2018-04-24T17:29:39.421Z,3.27
2018-04-24T17:32:07.640Z,3.00
2018-04-24T17:34:35.480Z,3.10
2018-04-24T17:37:03.328Z,2.83
2018-04-24T17:39:31.536Z,2.60
2018-04-24T17:41:59.393Z,2.37
2018-04-24T17:44:27.232Z,3.00
2018-04-24T17:46:54.976Z,3.20
2018-04-24T17:49:22.808Z,2.50
2018-04-24T17:51:50.672Z,2.60
2018-04-24T17:54:18.544Z,2.40
2018-04-24T17:56:46.406Z,2.53
2018-04-24T17:59:14.249Z,3.73
2018-04-24T18:01:42.430Z,2.43
2018-04-24T18:04:10.139Z,2.50
2018-04-24T18:06:38.007Z,2.33
2018-04-24T18:09:06.760Z,2.50
2018-04-24T18:11:34.632Z,2.37
2018-04-24T18:14:02.673Z,2.17
2018-04-24T18:16:30.538Z,2.13
2018-04-24T18:18:58.380Z,2.23
2018-04-24T18:21:26.264Z,2.03
2018-04-24T18:23:54.568Z,2.30
2018-04-24T18:26:22.406Z,2.13
2018-04-24T18:28:50.358Z,1.80
2018-04-24T18:31:18.217Z,1.60
2018-04-24T18:33:46.057Z,1.70
2018-04-24T18:36:13.892Z,1.90
2018-04-24T18:38:42.064Z,2.03
2018-04-24T18:41:09.912Z,1.80
2018-04-24T18:43:37.749Z,2.27
2018-04-24T18:46:05.624Z,1.57
2018-04-24T18:48:33.483Z,1.77
2018-04-24T18:51:01.236Z,1.80
2018-04-24T18:53:29.464Z,1.50
2018-04-24T18:56:02.836Z,1.73
2018-04-24T18:58:31.047Z,2.13
2018-04-24T19:00:58.894Z,1.47
2018-04-24T19:03:26.728Z,2.07
2018-04-24T19:05:54.956Z,1.40
2018-04-24T19:08:22.800Z,1.40
2018-04-24T19:10:50.653Z,1.60
2018-04-24T19:13:18.599Z,1.60
2018-04-24T19:15:46.586Z,2.00
2018-04-24T19:18:14.192Z,1.40
2018-04-24T19:20:42.350Z,1.57
2018-04-24T19:23:10.180Z,1.60
2018-04-24T19:25:43.202Z,1.50
2018-04-24T19:28:11.050Z,1.40
2018-04-24T19:30:38.889Z,1.57
2018-04-24T19:33:07.105Z,1.40
2018-04-24T19:35:34.944Z,1.37
2018-04-24T19:38:02.784Z,1.40
2018-04-24T19:40:36.557Z,1.40
2018-04-24T19:43:04.384Z,1.30
2018-04-24T19:45:32.234Z,1.30
2018-04-24T19:48:00.458Z,1.30
2018-04-24T19:50:28.321Z,1.13
2018-04-24T19:52:56.165Z,0.97
2018-04-24T19:55:27.233Z,1.47
2018-04-24T19:57:55.072Z,1.00
2018-04-24T20:00:22.910Z,1.20
2018-04-24T20:02:51.139Z,1.10
2018-04-24T20:05:19.093Z,1.20
2018-04-24T20:07:46.952Z,1.20
2018-04-24T20:10:14.827Z,0.90
2018-04-24T20:12:42.661Z,0.87
2018-04-24T20:15:10.505Z,1.53
2018-04-24T20:17:38.361Z,1.17
2018-04-24T20:20:06.200Z,1.03
2018-04-24T20:22:34.049Z,0.70
2018-04-24T20:25:02.245Z,1.07
2018-04-24T20:27:30.095Z,1.10
2018-04-24T20:29:57.939Z,0.90
2018-04-24T20:32:26.121Z,0.90
2018-04-24T20:34:54.519Z,0.90
2018-04-24T20:37:23.100Z,1.10
2018-04-24T20:39:51.333Z,0.83
2018-04-24T20:42:19.181Z,0.90
2018-04-24T20:44:47.023Z,1.03
2018-04-24T20:47:16.156Z,0.80
2018-04-24T20:49:44.395Z,0.80
2018-04-24T20:52:13.302Z,1.20
2018-04-24T20:54:48.358Z,0.90
2018-04-24T20:57:16.305Z,0.90
2018-04-24T20:59:44.352Z,0.80
2018-04-24T21:02:12.522Z,0.80
2018-04-24T21:04:41.341Z,0.90
2018-04-24T21:07:09.182Z,1.17
2018-04-24T21:09:37.352Z,0.97
2018-04-24T21:12:05.232Z,0.83
2018-04-24T21:14:33.069Z,1.00
2018-04-24T21:17:01.017Z,0.80
2018-04-24T21:19:28.935Z,0.80
2018-04-24T21:21:56.916Z,0.90
2018-04-24T21:24:30.669Z,1.03
2018-04-24T21:26:58.511Z,0.83
2018-04-24T21:29:26.356Z,0.80
2018-04-24T21:31:54.497Z,1.00
2018-04-24T21:34:22.328Z,0.80
2018-04-24T21:36:50.164Z,0.60
2018-04-24T21:39:18.332Z,0.87
2018-04-24T21:41:46.169Z,0.60
2018-04-24T21:44:14.005Z,0.80
2018-04-24T21:46:42.197Z,1.00
2018-04-24T21:49:10.045Z,0.73
2018-04-24T21:51:37.879Z,0.80
2018-04-24T21:54:11.498Z,0.70
2018-04-24T21:56:44.973Z,0.80
2018-04-24T21:59:12.829Z,1.03
2018-04-24T22:01:40.780Z,1.20
2018-04-24T22:04:08.783Z,0.80
2018-04-24T22:06:37.018Z,1.03
2018-04-24T22:09:04.605Z,0.90
2018-04-24T22:11:32.444Z,1.10
2018-04-24T22:14:00.683Z,1.00
2018-04-24T22:16:29.325Z,0.90
2018-04-24T22:18:57.163Z,0.97
2018-04-24T22:21:25.401Z,1.00
2018-04-24T22:23:58.914Z,0.93
2018-04-24T22:26:26.773Z,1.60
2018-04-24T22:28:54.619Z,0.80
2018-04-24T22:31:22.458Z,1.17
2018-04-24T22:33:50.606Z,2.20
2018-04-24T22:36:18.614Z,0.80
2018-04-24T22:38:46.452Z,1.00
2018-04-24T22:41:14.333Z,0.73
2018-04-24T22:43:47.857Z,0.83
2018-04-24T22:46:21.404Z,0.90
2018-04-24T22:48:49.264Z,0.60
2018-04-24T22:51:17.105Z,0.80
2018-04-24T22:53:45.312Z,0.63
2018-04-24T22:56:13.156Z,0.83
2018-04-24T22:58:41.001Z,0.60
2018-04-24T23:01:09.212Z,0.80
2018-04-24T23:03:37.065Z,0.60
2018-04-24T23:06:04.910Z,0.70
2018-04-24T23:08:33.139Z,1.23
2018-04-24T23:11:06.701Z,0.73
2018-04-24T23:13:40.153Z,0.90
2018-04-24T23:16:13.592Z,0.60
2018-04-24T23:18:47.420Z,0.83
2018-04-24T23:21:14.792Z,1.00
2018-04-24T23:23:42.629Z,0.70
2018-04-24T23:26:10.829Z,0.70
2018-04-24T23:28:38.664Z,0.80
2018-04-24T23:31:06.504Z,0.80
2018-04-24T23:33:34.726Z,0.87
2018-04-24T23:36:02.563Z,0.87
2018-04-24T23:38:30.296Z,0.80
2018-04-24T23:40:58.525Z,0.70
2018-04-24T23:43:26.367Z,0.70
2018-04-24T23:45:54.214Z,0.60
2018-04-24T23:48:22.356Z,0.77
2018-04-24T23:50:50.206Z,0.60
2018-04-24T23:53:17.894Z,0.80
2018-04-24T23:55:46.037Z,0.57
2018-04-24T23:58:13.876Z,0.53
